Buffalo, WY (82840)

4:00 PM MDT on August 24, 2016 (GMT -0600)
Esponda Ranch | | Change Station

Elev 4665 ft 44.32 °N, 106.67 °W | Updated 3 minutes ago

Overcast
Overcast
64.3 °F
Feels Like 64.3 °F
N
13.0
Wind Variable Wind from NNW
Gusts 18.0 mph

Today
High -- | Low -- °F
--% Chance of Precip.
Yesterday
High -- | Low -- °F
Precip. -- in
Pressure 30.17 in
Visibility 10.0 miles
Clouds Scattered Clouds 6000 ft
Mostly Cloudy 7500 ft
Overcast 9000 ft
Dew Point 45 °F
Humidity 49%
Rainfall 0.00 in
Snow Depth Not available.
6:20 AM 7:55 PM
Waning Gibbous, 53% visible
METAR KBYG 242153Z AUTO 32015G25KT 10SM SCT060 BKN075 OVC090 17/06 A3027 RMK AO2 SLP215 T01720056
Pressure 30.17 in
Visibility 10.0 miles
Clouds Scattered Clouds 6000 ft
Mostly Cloudy 7500 ft
Overcast 9000 ft
Dew Point 45 °F
Humidity 49%
Rainfall 0.00 in
Snow Depth Not available.
6:20 AM 7:55 PM
Waning Gibbous, 53% visible
METAR KBYG 242153Z AUTO 32015G25KT 10SM SCT060 BKN075 OVC090 17/06 A3027 RMK AO2 SLP215 T01720056

10-Day Weather Forecast

Almanac

Astronomy

Aug. 24, 2016 Rise Set
Actual Time
Civil Twilight
Nautical Twilight
Astronomical Twilight
Moon
Length of Visible Light
Length of Day
Tomorrow will be .
, % of the Moon is Illuminated

Today's Extremes

State Highs State Lows

Community

WunderPhotos

Upload Photos

1,934,722 photos uploaded!

WunderBlog® & News

Nearby

Air Quality

  Air Quality AQ Index Pollutant
Not available.

Snow Depth

Station Depth Elevation

Earthquake Activity

City Distance Mag. Time & Date
Minimum magnitude displayed is 2.5.

Coastal Water Temperatures

Place Temperature

Stations

Nearby Weather Stations

Station Location Temp. Windchill Dew Point Humidity Wind Precip. Elev Updated Type
                   

Watches & Warnings

There are currently no watches in effect.